Mirny Airport
UERR : rendu visible

Aérodrome :











RETROUVEZ-NOUS SUR...

 
LOGIN :

S'inscrire | Disclaimer

   EN    FR    IT 

 









Légende :    VFR   VFR Marginal   IFR   IFR Intensif   IFR Très Intensif
Visi : 
Plafond : 
>= 8 km
>= 3000ft
5 à 8 km
1000 à 3000 ft
1500m à 5 km
500 à 1000 ft
800 à 1500m
200 à 500 ft
< 800m
< 200 ft
Symboles :   Orages  Brouillard  Fortes neiges  Fortes précipitations  Vent > 20 kt






- Altitude de l'aérodrome : 1156 ft
- Code IATA : MJZ


UERR - Mirny

DERNIER METAR :
  • 270730Z 27006MPS 9999 -SN SCT027 M16/M16 Q1014 R25/390331 NOSIG RMK QFE730

METARs EXPIRÉS :
  • 270700Z 27006MPS 3000 -SN SCT032 M16/M16 Q1013 R25/390331 NOSIG RMK QFE729
  • 270630Z 26007MPS 9999 -SN FEW040 M16/M17 Q1013 R25/390331 NOSIG RMK QFE729
  • 270600Z 26007MPS 9999 -SN NSC M15/M17 Q1013 R25/390331 NOSIG RMK QFE729
  • 270530Z 26005MPS 9999 -SN NSC M15/M16 Q1013 R25/390331 NOSIG RMK QFE728
  • 270500Z 26006MPS 9999 -SN NSC M15/M16 Q1012 R25/390331 NOSIG RMK QFE728

TAF TAF UERR
Valide du 27 à 06h jusqu'au 28 à 06h UTC


270500Z 2706/2806 27005MPS 9999 SCT020 OVC100
TEMPO 2706/2709 3000 -SN SCT007 BKN015 OVC100



MET'MAP, la Météo Aéronautique d'un coup d'oeil ! - Copyright ORBIFLY Décembre 2007 - Disclaimer

ORBIFLY MET'MAP TEAM :

Programmation & Développement : Alexandra Zaïnal
Sur une idée originale de : Baudouin d'Aumeries
Assistance à la programmation : Marc-Olivier Méhu
Soutien technique & logistique : Manuel Goepfert

Contact : metmap@orbifly.com




SOURCES & CREDITS :

   NOAA       Earth
Advisory